createdAt,value
2019-02-05T00:00:56.423Z,9.63
2019-02-05T00:03:27.189Z,8.70
2019-02-05T00:05:57.936Z,10.80
2019-02-05T00:08:28.656Z,13.17
2019-02-05T00:10:59.728Z,9.13
2019-02-05T00:13:30.414Z,13.00
2019-02-05T00:16:00.977Z,12.07
2019-02-05T00:18:31.513Z,10.00
2019-02-05T00:21:02.173Z,10.03
2019-02-05T00:23:32.817Z,12.13
2019-02-05T00:26:06.183Z,8.20
2019-02-05T00:28:35.909Z,11.83
2019-02-05T00:31:06.661Z,11.10
2019-02-05T00:33:37.311Z,9.90
2019-02-05T00:36:07.959Z,10.87
2019-02-05T00:38:38.587Z,9.23
2019-02-05T00:41:10.255Z,8.63
2019-02-05T00:43:41.071Z,10.90
2019-02-05T00:46:11.905Z,8.63
2019-02-05T00:48:42.427Z,9.00
2019-02-05T00:51:13.456Z,10.63
2019-02-05T00:53:44.015Z,8.90
2019-02-05T00:56:17.683Z,14.20
2019-02-05T00:58:47.286Z,9.10
2019-02-05T01:01:18.033Z,7.97
2019-02-05T01:03:48.759Z,9.10
2019-02-05T01:06:19.822Z,7.57
2019-02-05T01:08:50.542Z,9.97
2019-02-05T01:11:21.734Z,11.40
2019-02-05T01:13:52.386Z,8.20
2019-02-05T01:16:23.364Z,10.93
2019-02-05T01:18:53.942Z,8.80
2019-02-05T01:21:24.601Z,7.30
2019-02-05T01:23:55.249Z,12.00
2019-02-05T01:26:29.148Z,9.13
2019-02-05T01:28:58.289Z,8.10
2019-02-05T01:31:29.017Z,8.77
2019-02-05T01:33:59.578Z,8.10
2019-02-05T01:36:30.489Z,8.80
2019-02-05T01:39:01.370Z,9.53
2019-02-05T01:41:32.017Z,8.80
2019-02-05T01:44:02.877Z,10.57
2019-02-05T01:46:33.511Z,7.60
2019-02-05T01:49:04.339Z,10.20
2019-02-05T01:51:35.001Z,9.37
2019-02-05T01:54:06.009Z,9.60
2019-02-05T01:56:40.759Z,10.17
2019-02-05T01:59:09.325Z,11.90
2019-02-05T02:01:40.145Z,12.03
2019-02-05T02:04:11.377Z,10.13
2019-02-05T02:06:42.310Z,11.17
2019-02-05T02:09:13.159Z,9.10
2019-02-05T02:11:43.810Z,8.53
2019-02-05T02:14:14.413Z,11.93
2019-02-05T02:16:45.073Z,9.47
2019-02-05T02:19:16.454Z,9.90
2019-02-05T02:21:47.166Z,9.17
2019-02-05T02:24:17.838Z,12.50
2019-02-05T02:26:52.137Z,12.23
2019-02-05T02:29:21.301Z,13.93
2019-02-05T02:31:51.854Z,11.17
2019-02-05T02:34:22.456Z,12.20
2019-02-05T02:36:53.054Z,13.70
2019-02-05T02:39:23.671Z,12.20
2019-02-05T02:41:54.274Z,11.67
2019-02-05T02:44:25.051Z,13.23
2019-02-05T02:46:55.785Z,15.53
2019-02-05T02:49:26.630Z,14.30
2019-02-05T02:51:57.197Z,12.33
2019-02-05T02:54:27.960Z,13.30
2019-02-05T02:57:04.872Z,11.33
2019-02-05T02:59:30.822Z,12.80
2019-02-05T03:02:02.024Z,12.10
2019-02-05T03:04:32.914Z,13.13
2019-02-05T03:07:03.929Z,13.93
2019-02-05T03:09:34.822Z,14.17
2019-02-05T03:12:05.717Z,14.03
2019-02-05T03:14:36.380Z,12.90
2019-02-05T03:17:07.672Z,12.50
2019-02-05T03:19:38.420Z,13.62
2019-02-05T03:22:08.989Z,13.30
2019-02-05T03:24:40.120Z,12.83
2019-02-05T03:27:17.990Z,11.57
2019-02-05T03:29:43.144Z,13.40
2019-02-05T03:32:13.997Z,13.37
2019-02-05T03:34:44.575Z,18.13
2019-02-05T03:37:15.324Z,12.30
2019-02-05T03:39:46.041Z,12.97
2019-02-05T03:42:16.968Z,13.43
2019-02-05T03:44:47.793Z,15.78
2019-02-05T03:47:24.615Z,14.83
2019-02-05T03:49:55.272Z,11.80
2019-02-05T03:52:37.230Z,12.80
2019-02-05T03:55:24.803Z,13.70
2019-02-05T03:58:23.112Z,14.70
2019-02-05T04:01:38.408Z,13.47
2019-02-05T04:05:08.553Z,15.78
2019-02-05T04:08:20.436Z,15.28
2019-02-05T04:15:35.940Z,12.87
2019-02-05T04:18:30.861Z,15.77
2019-02-05T04:21:41.982Z,17.37
2019-02-05T04:24:26.190Z,12.90
2019-02-05T04:27:25.762Z,16.75
2019-02-05T04:30:43.246Z,15.27
2019-02-05T04:33:56.873Z,13.07
2019-02-05T04:37:01.391Z,16.60
2019-02-05T04:40:13.319Z,22.57
2019-02-05T04:43:15.080Z,18.00
2019-02-05T04:46:26.665Z,17.17
2019-02-05T04:49:27.505Z,17.07
2019-02-05T04:52:33.106Z,16.80
2019-02-05T04:55:32.742Z,19.43
2019-02-05T04:58:17.947Z,17.17
2019-02-05T05:01:24.315Z,16.90
2019-02-05T05:04:09.194Z,19.95
2019-02-05T05:07:20.103Z,21.62
2019-02-05T05:09:50.415Z,18.10
2019-02-05T05:12:21.301Z,19.73
2019-02-05T05:14:52.171Z,19.62
2019-02-05T05:17:23.188Z,21.70
2019-02-05T05:19:53.910Z,19.00
2019-02-05T05:22:25.310Z,19.37
2019-02-05T05:24:56.257Z,19.90
2019-02-05T05:27:27.371Z,21.35
2019-02-05T05:29:58.162Z,20.48
2019-02-05T05:32:28.974Z,20.57
2019-02-05T05:34:59.667Z,25.17
2019-02-05T05:37:30.640Z,22.45
2019-02-05T05:40:01.279Z,21.33
2019-02-05T05:42:31.885Z,24.63
2019-02-05T05:45:02.460Z,28.47
2019-02-05T05:47:33.206Z,25.77
2019-02-05T05:50:04.603Z,28.90
2019-02-05T05:52:35.741Z,25.48
2019-02-05T05:55:06.780Z,28.12
2019-02-05T05:57:37.436Z,28.10
2019-02-05T06:00:12.282Z,25.90
2019-02-05T06:02:42.927Z,25.40
2019-02-05T06:05:17.050Z,29.87
2019-02-05T06:07:47.883Z,27.30
2019-02-05T06:10:18.947Z,26.87
2019-02-05T06:12:49.547Z,27.50
2019-02-05T06:15:20.246Z,30.55
2019-02-05T06:17:51.109Z,30.75
2019-02-05T06:20:22.153Z,26.77
2019-02-05T06:22:53.700Z,29.23
2019-02-05T06:25:24.448Z,30.43
2019-02-05T06:27:55.655Z,30.13
2019-02-05T06:30:29.087Z,32.20
2019-02-05T06:33:00.050Z,35.70
2019-02-05T06:35:30.674Z,34.00
2019-02-05T06:38:01.532Z,34.18
2019-02-05T06:40:32.093Z,34.10
2019-02-05T06:43:02.727Z,32.13
2019-02-05T06:45:33.392Z,34.92
2019-02-05T06:48:04.330Z,37.93
2019-02-05T06:50:35.445Z,34.57
2019-02-05T06:53:06.074Z,37.05
2019-02-05T06:55:36.670Z,35.05
2019-02-05T06:58:07.458Z,35.08
2019-02-05T07:00:38.422Z,36.23
2019-02-05T07:03:09.401Z,39.27
2019-02-05T07:05:40.430Z,32.00
2019-02-05T07:08:11.066Z,34.50
2019-02-05T07:10:41.797Z,35.95
2019-02-05T07:13:12.970Z,33.37
2019-02-05T07:15:43.721Z,34.67
2019-02-05T07:18:14.580Z,33.50
2019-02-05T07:20:45.278Z,34.15
2019-02-05T07:23:15.938Z,35.37
2019-02-05T07:25:46.639Z,34.90
2019-02-05T07:28:17.317Z,38.48
2019-02-05T07:30:48.158Z,37.03
2019-02-05T07:33:26.351Z,41.65
2019-02-05T07:35:57.154Z,38.38
2019-02-05T07:38:27.730Z,34.05
2019-02-05T07:40:58.538Z,36.23
2019-02-05T07:43:29.430Z,35.83
2019-02-05T07:46:00.093Z,37.60
2019-02-05T07:48:30.946Z,40.98
2019-02-05T07:51:01.823Z,36.98
2019-02-05T07:53:33.313Z,36.30
2019-02-05T07:56:04.629Z,41.00
2019-02-05T07:58:35.661Z,37.20
2019-02-05T08:04:37.607Z,36.10
2019-02-05T08:07:08.345Z,33.48
2019-02-05T08:09:39.185Z,35.55
2019-02-05T08:12:10.252Z,42.60
2019-02-05T08:14:41.173Z,36.40
2019-02-05T08:17:11.955Z,35.30
2019-02-05T08:19:42.573Z,37.48
2019-02-05T08:22:13.916Z,43.10
2019-02-05T08:24:44.812Z,38.40
2019-02-05T08:27:15.469Z,39.75
2019-02-05T08:29:46.063Z,36.03
2019-02-05T08:32:16.663Z,44.45
2019-02-05T08:34:47.371Z,33.95
2019-02-05T08:37:18.635Z,37.13
2019-02-05T08:39:49.510Z,35.13
2019-02-05T08:42:20.407Z,36.57
2019-02-05T08:44:51.101Z,42.10
2019-02-05T08:47:21.839Z,35.63
2019-02-05T08:49:52.591Z,34.20
2019-02-05T08:52:23.266Z,36.23
2019-02-05T08:54:54.293Z,36.47
2019-02-05T08:57:24.959Z,37.33
2019-02-05T08:59:55.562Z,43.30
2019-02-05T09:02:26.274Z,37.93
2019-02-05T09:04:56.930Z,39.83
2019-02-05T09:07:27.864Z,45.13
2019-02-05T09:10:01.670Z,41.80
2019-02-05T09:12:32.691Z,40.60
2019-02-05T09:15:03.454Z,37.40
2019-02-05T09:17:34.183Z,39.30
2019-02-05T09:20:06.478Z,34.53
2019-02-05T09:22:37.234Z,36.60
2019-02-05T09:25:08.914Z,39.00
2019-02-05T09:27:39.678Z,58.67
2019-02-05T09:30:13.701Z,35.57
2019-02-05T09:32:44.866Z,36.80
2019-02-05T09:35:15.794Z,31.03
2019-02-05T09:37:46.804Z,29.60
2019-02-05T09:40:21.120Z,36.67
2019-02-05T09:42:52.008Z,33.87
2019-02-05T09:45:22.912Z,29.67
2019-02-05T09:47:54.105Z,35.83
2019-02-05T09:50:24.894Z,30.87
2019-02-05T09:52:55.750Z,30.13
2019-02-05T09:55:27.131Z,33.23
2019-02-05T09:57:58.166Z,30.70
2019-02-05T10:00:31.947Z,29.98
2019-02-05T10:03:03.572Z,32.48
2019-02-05T10:05:34.468Z,29.70
2019-02-05T10:08:05.395Z,29.50
2019-02-05T10:10:36.194Z,30.40
2019-02-05T10:13:07.906Z,26.17
2019-02-05T10:15:39.708Z,28.85
2019-02-05T10:18:11.937Z,29.80
2019-02-05T10:20:42.907Z,30.10
2019-02-05T10:23:13.652Z,25.82
2019-02-05T10:25:44.779Z,35.03
2019-02-05T10:28:15.715Z,35.63
2019-02-05T10:30:46.847Z,30.17
2019-02-05T10:33:17.528Z,26.42
2019-02-05T10:35:48.361Z,28.33
2019-02-05T10:38:19.162Z,36.83
2019-02-05T10:40:49.798Z,29.67
2019-02-05T10:43:20.663Z,28.10
2019-02-05T10:45:51.700Z,30.05
2019-02-05T10:48:22.553Z,29.35
2019-02-05T10:51:02.282Z,31.80
2019-02-05T10:53:32.911Z,28.25
2019-02-05T10:56:04.368Z,28.92
2019-02-05T10:58:35.170Z,28.05
2019-02-05T11:01:06.181Z,32.40
2019-02-05T11:03:37.134Z,25.10
2019-02-05T11:06:08.062Z,27.48
2019-02-05T11:08:38.705Z,28.50
2019-02-05T11:11:10.416Z,30.50
2019-02-05T11:13:41.159Z,33.15
2019-02-05T11:16:11.997Z,33.67
2019-02-05T11:18:42.876Z,34.50
2019-02-05T11:21:13.670Z,32.88
2019-02-05T11:23:44.367Z,32.73
2019-02-05T11:26:15.429Z,38.23
2019-02-05T11:28:46.155Z,30.02
2019-02-05T11:31:17.199Z,29.70
2019-02-05T11:33:47.799Z,33.25
2019-02-05T11:36:18.599Z,32.48
2019-02-05T11:38:49.380Z,31.97
2019-02-05T11:41:21.232Z,37.58
2019-02-05T11:43:51.923Z,36.77
2019-02-05T11:46:22.715Z,34.10
2019-02-05T11:48:53.374Z,35.50
2019-02-05T11:51:24.068Z,36.25
2019-02-05T11:53:54.933Z,38.13
2019-02-05T11:56:25.676Z,44.33
2019-02-05T11:58:56.618Z,34.10
2019-02-05T12:01:38.987Z,40.85
2019-02-05T12:04:06.087Z,34.95
2019-02-05T12:06:37.034Z,37.73
2019-02-05T12:09:20.609Z,35.13
2019-02-05T12:11:51.522Z,40.20
2019-02-05T12:14:22.370Z,42.20
2019-02-05T12:16:53.122Z,34.45
2019-02-05T12:19:23.761Z,40.55
2019-02-05T12:21:54.911Z,35.90
2019-02-05T12:24:25.623Z,35.90
2019-02-05T12:26:56.241Z,43.20
2019-02-05T12:29:26.933Z,35.07
2019-02-05T12:31:57.904Z,34.47
2019-02-05T12:34:28.544Z,37.95
2019-02-05T12:36:59.379Z,39.15
2019-02-05T12:39:30.018Z,37.37
2019-02-05T12:42:00.954Z,41.77
2019-02-05T12:44:31.914Z,37.40
2019-02-05T12:47:02.504Z,37.83
2019-02-05T12:49:33.209Z,40.45
2019-02-05T12:52:04.016Z,36.73
2019-02-05T12:54:34.622Z,37.08
2019-02-05T12:57:05.632Z,37.90
2019-02-05T12:59:36.274Z,37.07
2019-02-05T13:02:07.018Z,39.58
2019-02-05T13:04:38.071Z,37.17
2019-02-05T13:07:09.014Z,40.20
2019-02-05T13:09:39.890Z,40.63
2019-02-05T13:12:10.621Z,39.95
2019-02-05T13:14:41.316Z,41.70
2019-02-05T13:17:12.560Z,38.17
2019-02-05T13:19:43.294Z,37.10
2019-02-05T13:22:14.024Z,35.55
2019-02-05T13:24:44.675Z,37.93
2019-02-05T13:27:15.465Z,40.38
2019-02-05T13:29:46.117Z,44.23
2019-02-05T13:32:16.781Z,39.98
2019-02-05T13:34:55.106Z,40.60
2019-02-05T13:37:26.232Z,40.38
2019-02-05T13:39:56.878Z,37.98
2019-02-05T13:42:28.066Z,42.17
2019-02-05T13:44:58.777Z,40.80
2019-02-05T13:47:29.465Z,40.33
2019-02-05T13:50:00.249Z,37.07
2019-02-05T13:52:31.205Z,37.10
2019-02-05T13:55:02.067Z,38.80
2019-02-05T13:57:32.703Z,37.57
2019-02-05T14:00:04.330Z,44.77
2019-02-05T14:02:34.986Z,46.88
2019-02-05T14:05:06.925Z,40.90
2019-02-05T14:07:38.026Z,41.88
2019-02-05T14:10:12.631Z,47.30
2019-02-05T14:12:43.781Z,41.60
2019-02-05T14:15:15.361Z,48.33
2019-02-05T14:18:54.988Z,49.00
2019-02-05T14:21:20.662Z,48.80
2019-02-05T14:23:52.173Z,48.85
2019-02-05T14:26:22.890Z,47.73
2019-02-05T14:28:53.544Z,52.88
2019-02-05T14:31:31.149Z,47.40
2019-02-05T14:33:57.118Z,49.83
2019-02-05T14:36:28.156Z,50.85
2019-02-05T14:38:58.742Z,46.18
2019-02-05T14:41:29.424Z,46.02
2019-02-05T14:44:00.414Z,46.83
2019-02-05T14:46:31.294Z,52.08
2019-02-05T14:49:02.000Z,53.37
2019-02-05T14:51:33.029Z,48.60
2019-02-05T14:54:03.665Z,55.40
2019-02-05T14:56:34.449Z,48.63
2019-02-05T14:59:05.968Z,52.30
2019-02-05T15:01:43.312Z,48.80
2019-02-05T15:04:09.025Z,50.58
2019-02-05T15:06:39.776Z,50.03
2019-02-05T15:09:11.210Z,47.88
2019-02-05T15:11:41.839Z,51.63
2019-02-05T15:14:12.565Z,45.03
2019-02-05T15:16:43.592Z,52.10
2019-02-05T15:19:14.220Z,46.20
2019-02-05T15:21:45.015Z,50.43
2019-02-05T15:24:16.394Z,49.95
2019-02-05T15:26:47.456Z,50.67
2019-02-05T15:29:18.496Z,52.73
2019-02-05T15:31:54.603Z,47.67
2019-02-05T15:34:26.618Z,43.63
2019-02-05T15:36:57.455Z,48.25
2019-02-05T15:39:28.150Z,54.03
2019-02-05T15:41:59.227Z,47.65
2019-02-05T15:44:29.890Z,46.37
2019-02-05T15:47:00.603Z,44.75
2019-02-05T15:49:31.250Z,56.90
2019-02-05T15:52:02.063Z,47.00
2019-02-05T15:54:34.442Z,47.13
2019-02-05T15:57:05.233Z,42.53
2019-02-05T15:59:36.021Z,52.73
2019-02-05T16:02:06.985Z,48.40
2019-02-05T16:04:37.741Z,53.90
2019-02-05T16:07:08.843Z,46.65
2019-02-05T16:09:39.917Z,45.10
2019-02-05T16:12:10.867Z,47.27
2019-02-05T16:14:41.597Z,49.73
2019-02-05T16:17:12.228Z,50.95
2019-02-05T16:19:42.877Z,54.05
2019-02-05T16:22:13.614Z,50.80
2019-02-05T16:24:44.336Z,50.88
2019-02-05T16:27:15.214Z,52.13
2019-02-05T16:29:45.902Z,51.53
2019-02-05T16:32:17.861Z,50.03
2019-02-05T16:34:49.311Z,50.88
2019-02-05T16:37:20.058Z,48.42
2019-02-05T16:39:51.047Z,47.20
2019-02-05T16:42:21.935Z,49.77
2019-02-05T16:44:53.454Z,50.08
2019-02-05T16:47:24.132Z,49.83
2019-02-05T16:49:54.973Z,51.00
2019-02-05T16:52:25.739Z,45.17
2019-02-05T16:54:56.423Z,46.80
2019-02-05T16:57:27.219Z,47.40
2019-02-05T16:59:58.006Z,45.28
2019-02-05T17:02:29.334Z,43.92
2019-02-05T17:05:00.002Z,41.23
2019-02-05T17:07:30.992Z,46.40
2019-02-05T17:10:01.665Z,49.55
2019-02-05T17:12:32.453Z,45.83
2019-02-05T17:15:04.893Z,41.95
2019-02-05T17:17:35.715Z,45.73
2019-02-05T17:20:08.512Z,46.80
2019-02-05T17:22:39.790Z,45.37
2019-02-05T17:25:13.111Z,46.92
2019-02-05T17:27:44.614Z,36.63
2019-02-05T17:30:21.407Z,36.77
2019-02-05T17:32:52.367Z,37.43
2019-02-05T17:35:23.401Z,39.27
2019-02-05T17:42:55.044Z,35.37
2019-02-05T17:45:31.167Z,36.37
2019-02-05T17:48:04.428Z,35.17
2019-02-05T17:50:35.241Z,41.97
2019-02-05T17:53:06.263Z,32.87
2019-02-05T17:55:37.122Z,35.90
2019-02-05T17:58:08.062Z,34.13
2019-02-05T18:00:48.787Z,39.67
2019-02-05T18:03:19.683Z,34.80
2019-02-05T18:05:50.309Z,32.07
2019-02-05T18:08:21.006Z,35.17
2019-02-05T18:10:51.812Z,37.77
2019-02-05T18:13:22.707Z,31.57
2019-02-05T18:15:56.799Z,33.60
2019-02-05T18:18:27.494Z,39.77
2019-02-05T18:20:58.487Z,29.67
2019-02-05T18:23:29.684Z,25.70
2019-02-05T18:26:00.986Z,25.67
2019-02-05T18:28:37.479Z,30.65
2019-02-05T18:31:08.538Z,33.15
2019-02-05T18:33:39.212Z,31.48
2019-02-05T18:36:10.112Z,31.90
2019-02-05T18:38:41.050Z,27.47
2019-02-05T18:41:11.998Z,31.83
2019-02-05T18:43:47.470Z,31.07
2019-02-05T18:46:19.139Z,30.70
2019-02-05T18:48:50.056Z,29.43
2019-02-05T18:51:20.794Z,27.63
2019-02-05T18:53:51.785Z,33.33
2019-02-05T18:56:22.786Z,35.70
2019-02-05T18:58:53.873Z,38.77
2019-02-05T19:01:24.959Z,28.97
2019-02-05T19:03:55.982Z,26.00
2019-02-05T19:06:27.131Z,31.83
2019-02-05T19:12:49.692Z,38.27
2019-02-05T19:15:28.233Z,38.80
2019-02-05T19:18:04.168Z,36.90
2019-02-05T19:20:35.840Z,39.27
2019-02-05T19:36:01.576Z,38.70
2019-02-05T19:40:08.102Z,37.47
2019-02-05T19:43:06.888Z,43.97
2019-02-05T19:46:45.172Z,43.97
2019-02-05T19:54:11.274Z,35.30
2019-02-05T20:32:30.829Z,49.08
2019-02-05T20:35:01.908Z,44.70
2019-02-05T20:37:33.048Z,45.60
2019-02-05T20:40:06.859Z,46.63
2019-02-05T20:42:39.637Z,49.03
2019-02-05T20:45:12.046Z,45.17
2019-02-05T20:47:47.516Z,58.13
2019-02-05T20:50:20.163Z,53.93
2019-02-05T20:53:23.820Z,46.10
2019-02-05T20:55:59.636Z,55.53
2019-02-05T20:58:33.587Z,48.43
2019-02-05T21:01:05.304Z,47.10
2019-02-05T21:03:37.819Z,48.50
2019-02-05T21:06:10.318Z,53.47
2019-02-05T21:08:46.935Z,53.10
2019-02-05T21:11:20.524Z,52.60
2019-02-05T21:13:56.279Z,50.53
2019-02-05T21:16:30.711Z,50.60
2019-02-05T21:19:03.396Z,55.00
2019-02-05T21:21:34.756Z,51.80
2019-02-05T21:24:07.403Z,44.77
2019-02-05T21:26:41.094Z,51.73
2019-02-05T21:29:12.343Z,54.60
2019-02-05T21:31:43.360Z,56.47
2019-02-05T21:34:33.155Z,56.10
2019-02-05T21:37:07.834Z,53.93
2019-02-05T21:39:38.722Z,55.30
2019-02-05T21:46:13.638Z,57.50
2019-02-05T21:52:05.174Z,47.30
2019-02-05T21:54:43.434Z,56.70
2019-02-05T21:58:23.560Z,56.13
2019-02-05T22:01:43.355Z,51.37
2019-02-05T22:04:52.916Z,51.63
2019-02-05T22:07:35.726Z,43.27
2019-02-05T22:10:13.039Z,59.37
2019-02-05T22:12:51.539Z,51.67
2019-02-05T22:15:25.885Z,48.77
2019-02-05T22:17:56.972Z,53.90
2019-02-05T22:20:33.978Z,53.37
2019-02-05T22:23:04.846Z,56.40
2019-02-05T22:25:35.760Z,50.10
2019-02-05T22:28:06.856Z,61.77
2019-02-05T22:31:00.807Z,50.63
2019-02-05T22:33:33.265Z,61.00
2019-02-05T22:36:15.637Z,61.80
2019-02-05T22:39:36.645Z,59.67
2019-02-05T22:42:20.732Z,60.07
2019-02-05T22:45:22.364Z,59.47
2019-02-05T22:48:16.698Z,63.83
2019-02-05T22:50:55.213Z,58.80
2019-02-05T22:53:37.821Z,51.07
2019-02-05T22:56:37.092Z,62.97
2019-02-05T22:59:51.024Z,61.60
2019-02-05T23:02:39.313Z,66.20
2019-02-05T23:08:51.272Z,62.00
2019-02-05T23:12:04.972Z,62.73
2019-02-05T23:14:52.144Z,61.80
2019-02-05T23:17:36.733Z,63.87
2019-02-05T23:20:30.161Z,67.10
2019-02-05T23:23:13.518Z,67.80
2019-02-05T23:25:54.775Z,60.67
2019-02-05T23:28:41.257Z,63.80
2019-02-05T23:31:19.686Z,61.20
2019-02-05T23:33:57.982Z,72.47
2019-02-05T23:36:31.518Z,64.57
2019-02-05T23:39:20.906Z,57.03
2019-02-05T23:41:54.959Z,67.32
2019-02-05T23:44:35.469Z,59.97
2019-02-05T23:47:12.672Z,68.27
2019-02-05T23:49:45.819Z,65.67
2019-02-05T23:52:20.176Z,66.57
2019-02-05T23:55:13.295Z,60.37
2019-02-05T23:57:39.961Z,63.23
